»·PEaware :: JBU554 KJFK-KATL

JBU554 :: KJFK-KATL

FLIGHT INFORMATION

Flight Status: Arrived
Operator:
JetBlue Airways
More flights by this operator :: More flights under this callsign
Pilot: Shawn G. (7208)
Aircraft: AIRBUS A320
(A320)
More flights by this aircraft type
Origin: KJFK Kennedy Intl
United States
Destination: KATL Hartsfield-Jackson Atlanta
United States
More flights between these airports :: More routes between these airports
Route: RBV J230 BYRDD J48 FLASK OZZZI1
File this flight plan on PilotEdge
Remarks:
Altitude:
(Current/Filed)
38,000ft
Speed:
(Current/Filed)
444kts
Departed: 03-Mar-18 04:57 PM
Arrived: 03-Mar-18 06:42 PM
Distance/Time
Traveled:
659nm/1:45
Distance/Time
To Go:
Arrived

Flight Plot

Page will automatically refresh every two minutes.

Flight plan parsing failed; only flown route is shown


Map Options




Map Legend


Flown Route
Filed Route
Departure Airport
Arrival Airport
Navaid (VOR, NDB)
Fix

Horizontal Profiles

Position Reports

Time Latitude Longitude Heading Altitude Ground
Speed
03-Mar-18 16:38 40.650395 -73.782866 190 22ft 0kts
03-Mar-18 16:39 40.650394 -73.782866 190 22ft 0kts
03-Mar-18 16:40 40.650395 -73.782866 190 22ft 0kts
03-Mar-18 16:41 40.650394 -73.782866 190 22ft 0kts
03-Mar-18 16:42 40.650394 -73.782866 190 22ft 0kts
03-Mar-18 16:43 40.650394 -73.782866 190 22ft 0kts
03-Mar-18 16:44 40.650394 -73.782866 190 22ft 0kts
03-Mar-18 16:45 40.650394 -73.782866 190 22ft 0kts
03-Mar-18 16:46 40.650394 -73.782866 190 22ft 0kts
03-Mar-18 16:47 40.650394 -73.782866 190 22ft 0kts
03-Mar-18 16:48 40.650394 -73.782866 190 22ft 0kts
03-Mar-18 16:49 40.650394 -73.782866 190 22ft 0kts
03-Mar-18 16:50 40.650395 -73.782866 190 22ft 0kts
03-Mar-18 16:51 40.650394 -73.782866 190 22ft 0kts
03-Mar-18 16:52 40.650395 -73.782866 190 22ft 0kts
03-Mar-18 16:53 40.650789 -73.782765 190 22ft 2kts
03-Mar-18 16:54 40.651272 -73.782856 127 22ft 0kts
03-Mar-18 16:55 40.650969 -73.782147 82 22ft 1kts
03-Mar-18 16:56 40.650973 -73.782106 83 22ft 0kts
03-Mar-18 16:57 40.650973 -73.782106 83 22ft 0kts
03-Mar-18 16:58 40.650980 -73.782025 81 22ft 1kts
03-Mar-18 16:59 40.651212 -73.780583 119 22ft 9kts
03-Mar-18 17:00 40.650817 -73.777712 120 22ft 16kts
03-Mar-18 17:01 40.647898 -73.771291 120 22ft 23kts
03-Mar-18 17:02 40.644288 -73.763378 119 22ft 15kts
03-Mar-18 17:03 40.644245 -73.760415 299 22ft 7kts
03-Mar-18 17:04 40.656386 -73.786707 306 741ft 161kts
03-Mar-18 17:05 40.652809 -73.844643 225 3279ft 230kts
03-Mar-18 17:06 40.599194 -73.908063 228 4911ft 275kts
03-Mar-18 17:07 40.561191 -73.991720 231 4984ft 277kts
03-Mar-18 17:08 40.548661 -74.083452 248 5018ft 271kts
03-Mar-18 17:09 40.482727 -74.131309 223 5321ft 281kts
03-Mar-18 17:10 40.426502 -74.204026 228 8327ft 295kts
03-Mar-18 17:11 40.366181 -74.282728 228 11012ft 331kts
03-Mar-18 17:12 40.297202 -74.372318 228 13544ft 359kts
03-Mar-18 17:13 40.225860 -74.464795 228 16330ft 366kts
03-Mar-18 17:14 40.195333 -74.583786 269 18735ft 356kts
03-Mar-18 17:15 40.185461 -74.711488 267 20870ft 365kts
03-Mar-18 17:16 40.174853 -74.844566 267 22828ft 374kts
03-Mar-18 17:17 40.163741 -74.981608 267 24592ft 383kts
03-Mar-18 17:18 40.152214 -75.121681 268 26134ft 394kts
03-Mar-18 17:19 40.140226 -75.265118 268 27600ft 402kts
03-Mar-18 17:20 40.127803 -75.411585 268 28927ft 410kts
03-Mar-18 17:21 40.114967 -75.560537 268 30139ft 417kts
03-Mar-18 17:22 40.101931 -75.709574 267 31211ft 424kts
03-Mar-18 17:23 40.071604 -75.859230 242 32191ft 445kts
03-Mar-18 17:24 40.002424 -75.995139 239 33092ft 453kts
03-Mar-18 17:25 39.933287 -76.130159 241 34216ft 447kts
03-Mar-18 17:26 39.866160 -76.262465 241 35121ft 447kts
03-Mar-18 17:27 39.797572 -76.396175 241 35941ft 446kts
03-Mar-18 17:28 39.728872 -76.529450 241 36697ft 445kts
03-Mar-18 17:29 39.660940 -76.660602 240 37317ft 445kts
03-Mar-18 17:30 39.591663 -76.793785 240 37893ft 446kts
03-Mar-18 17:31 39.522440 -76.926305 242 38311ft 448kts
03-Mar-18 17:32 39.433510 -77.043527 226 38324ft 467kts
03-Mar-18 17:33 39.332683 -77.149450 227 38352ft 469kts
03-Mar-18 17:34 39.248454 -77.237692 227 38339ft 469kts
03-Mar-18 17:35 39.147523 -77.343045 227 38331ft 469kts
03-Mar-18 17:36 39.029524 -77.465705 227 38355ft 469kts
03-Mar-18 17:37 38.928333 -77.570455 227 38360ft 468kts
03-Mar-18 17:38 38.847643 -77.653705 226 38361ft 466kts
03-Mar-18 17:39 38.747548 -77.756638 226 38338ft 465kts
03-Mar-18 17:40 38.647663 -77.860325 232 38341ft 459kts
03-Mar-18 17:41 38.570521 -77.986133 241 38354ft 448kts
03-Mar-18 17:42 38.495809 -78.113049 241 38343ft 448kts
03-Mar-18 17:43 38.421048 -78.239555 241 38326ft 448kts
03-Mar-18 17:44 38.345905 -78.366208 241 38321ft 448kts
03-Mar-18 17:45 38.270655 -78.492554 241 38327ft 449kts
03-Mar-18 17:46 38.195290 -78.618602 241 38362ft 449kts
03-Mar-18 17:47 38.121839 -78.740987 241 38386ft 450kts
03-Mar-18 17:48 38.045767 -78.867252 240 38386ft 451kts
03-Mar-18 17:49 37.969565 -78.993248 241 38394ft 451kts
03-Mar-18 17:50 37.894200 -79.115594 238 38400ft 453kts
03-Mar-18 17:51 37.810905 -79.231815 238 38354ft 448kts
03-Mar-18 17:52 37.727597 -79.347482 238 38278ft 445kts
03-Mar-18 17:53 37.644424 -79.462535 238 38268ft 444kts
03-Mar-18 17:54 37.561282 -79.577130 238 38289ft 445kts
03-Mar-18 17:55 37.478850 -79.690347 237 38346ft 446kts
03-Mar-18 17:56 37.394936 -79.805179 237 38394ft 448kts
03-Mar-18 17:57 37.310655 -79.920106 237 38399ft 448kts
03-Mar-18 17:58 37.226186 -80.034881 237 38389ft 448kts
03-Mar-18 17:59 37.141556 -80.149468 237 38390ft 448kts
03-Mar-18 18:00 37.057341 -80.263087 237 38399ft 447kts
03-Mar-18 18:01 36.971807 -80.375265 236 38404ft 446kts
03-Mar-18 18:02 36.888182 -80.482239 236 38377ft 443kts
03-Mar-18 18:03 36.802524 -80.591436 236 38317ft 440kts
03-Mar-18 18:04 36.718923 -80.697662 235 38312ft 441kts
03-Mar-18 18:05 36.632724 -80.806809 235 38335ft 443kts
03-Mar-18 18:06 36.546592 -80.915500 235 38356ft 444kts
03-Mar-18 18:07 36.459955 -81.024455 234 38400ft 444kts
03-Mar-18 18:08 36.373229 -81.133171 234 38417ft 442kts
03-Mar-18 18:09 36.287059 -81.240889 234 38365ft 441kts
03-Mar-18 18:10 36.201169 -81.348041 234 38373ft 440kts
03-Mar-18 18:11 36.115408 -81.454670 234 38357ft 439kts
03-Mar-18 18:12 36.029344 -81.561324 234 38345ft 438kts
03-Mar-18 18:13 35.944774 -81.665770 233 38360ft 439kts
03-Mar-18 18:14 35.860749 -81.769224 233 38371ft 440kts
03-Mar-18 18:15 35.774147 -81.875266 233 38367ft 441kts
03-Mar-18 18:16 35.686279 -81.980288 233 38348ft 441kts
03-Mar-18 18:17 35.598710 -82.084779 233 38331ft 441kts
03-Mar-18 18:18 35.510776 -82.189385 233 38346ft 441kts
03-Mar-18 18:19 35.422780 -82.293879 234 38359ft 440kts
03-Mar-18 18:20 35.336917 -82.400642 234 38360ft 440kts
03-Mar-18 18:21 35.251139 -82.506927 234 38361ft 440kts
03-Mar-18 18:22 35.165373 -82.612869 234 38353ft 440kts
03-Mar-18 18:23 35.080316 -82.714243 232 38337ft 443kts
03-Mar-18 18:24 34.991292 -82.819635 233 36265ft 448kts
03-Mar-18 18:25 34.903164 -82.923117 235 34157ft 440kts
03-Mar-18 18:26 34.817533 -83.022123 235 31699ft 439kts
03-Mar-18 18:27 34.731315 -83.121546 235 29822ft 421kts
03-Mar-18 18:28 34.647482 -83.218007 234 27643ft 413kts
03-Mar-18 18:29 34.565573 -83.311895 233 24434ft 399kts
03-Mar-18 18:30 34.487530 -83.401592 233 21252ft 377kts
03-Mar-18 18:31 34.412789 -83.487459 232 19415ft 366kts
03-Mar-18 18:32 34.339969 -83.570816 231 17625ft 355kts
03-Mar-18 18:33 34.268397 -83.650899 228 15880ft 348kts
03-Mar-18 18:34 34.198467 -83.725342 227 14209ft 340kts
03-Mar-18 18:35 34.128467 -83.799710 226 12540ft 333kts
03-Mar-18 18:36 34.061539 -83.871058 227 11353ft 312kts
03-Mar-18 18:37 33.998280 -83.938970 227 10146ft 300kts
03-Mar-18 18:38 33.921278 -83.966357 180 9016ft 306kts
03-Mar-18 18:39 33.838454 -83.962700 180 8484ft 303kts
03-Mar-18 18:40 33.755421 -83.959875 189 7983ft 297kts
03-Mar-18 18:41 33.677331 -83.985455 199 7330ft 288kts
03-Mar-18 18:42 33.631227 -84.040347 275 6576ft 239kts
03-Mar-18 18:43 33.632645 -84.120342 273 5742ft 242kts
03-Mar-18 18:44 33.632170 -84.198615 273 4627ft 234kts
03-Mar-18 18:45 33.631999 -84.269023 274 3480ft 190kts
03-Mar-18 18:46 33.631938 -84.321979 275 2577ft 132kts
03-Mar-18 18:47 33.631803 -84.364291 273 1957ft 132kts
03-Mar-18 18:48 33.631812 -84.408025 275 1226ft 130kts
03-Mar-18 18:49 33.631889 -84.438882 271 1031ft 15kts
03-Mar-18 18:50 33.633555 -84.442638 64 1031ft 8kts
03-Mar-18 18:51 33.636543 -84.441575 62 1031ft 15kts
03-Mar-18 18:52 33.636637 -84.435564 90 1031ft 20kts
03-Mar-18 18:53 33.638011 -84.431337 1 1031ft 15kts
03-Mar-18 18:54 33.639411 -84.432050 267 1031ft 0kts
03-Mar-18 18:55 33.639411 -84.432122 269 1031ft 0kts
03-Mar-18 18:56 33.639411 -84.432122 269 1031ft 0kts
03-Mar-18 18:57 33.639411 -84.432122 269 1031ft 0kts
03-Mar-18 18:58 33.639411 -84.432122 269 1031ft 0kts
03-Mar-18 18:59 33.639411 -84.432122 269 1031ft 0kts
03-Mar-18 19:00 33.639411 -84.432122 269 1031ft 0kts
03-Mar-18 19:01 33.639411 -84.432122 269 1031ft 0kts
03-Mar-18 19:02 33.639411 -84.432122 269 1031ft 0kts
03-Mar-18 19:03 33.639411 -84.432122 269 1031ft 0kts

Navigation Log

Ident Type
Flight plan parsing failed, navigation log unavailable